Time;durP1;ratioP1;P1;durP2;ratioP2;P2;SDS_P1;SDS_P2;PMS_P1;PMS_P2;Temp;Humidity;BMP_temperature;BMP_pressure;BME280_temperature;BME280_humidity;BME280_pressure;Samples;Min_cycle;Max_cycle;Signal;HPM_P1;HPM_P2
2023/09/23 00:02:15;;;;;;;2.43;2.00;;;;;;;;;;5019332;28;20500;-87
2023/09/23 00:04:42;;;;;;;5.10;2.30;;;;;;;;;;5025041;28;20875;-88
2023/09/23 00:07:09;;;;;;;2.37;1.40;;;;;;;;;;5023896;28;20414;-88
2023/09/23 00:09:36;;;;;;;4.23;2.33;;;;;;;;;;5038932;28;20413;-89
2023/09/23 00:12:02;;;;;;;3.57;1.90;;;;;;;;;;5050367;28;20428;-89
2023/09/23 00:14:28;;;;;;;3.63;2.40;;;;;;;;;;5049709;28;20423;-90
2023/09/23 00:16:55;;;;;;;2.60;1.40;;;;;;;;;;5050166;28;20420;-90
2023/09/23 00:19:21;;;;;;;2.97;2.10;;;;;;;;;;5050017;28;20968;-90
2023/09/23 00:21:49;;;;;;;3.60;2.73;;;;;;;;;;5050402;28;20417;-89
2023/09/23 00:24:15;;;;;;;7.00;2.30;;;;;;;;;;5050057;28;20459;-88
2023/09/23 00:26:42;;;;;;;3.03;2.03;;;;;;;;;;5034443;28;20428;-90
2023/09/23 00:29:08;;;;;;;4.17;2.73;;;;;;;;;;5034179;28;20401;-89
2023/09/23 00:31:34;;;;;;;3.67;2.10;;;;;;;;;;5050032;28;20435;-88
2023/09/23 00:34:00;;;;;;;6.17;2.90;;;;;;;;;;5049870;28;20413;-90
2023/09/23 00:36:26;;;;;;;2.50;2.30;;;;;;;;;;5049844;28;20988;-89
2023/09/23 00:38:52;;;;;;;3.90;2.70;;;;;;;;;;5049856;28;20436;-90
2023/09/23 00:41:18;;;;;;;4.40;2.73;;;;;;;;;;5034375;28;20526;-88
2023/09/23 00:43:47;;;;;;;2.93;2.57;;;;;;;;;;5049762;28;20416;-89
2023/09/23 00:46:18;;;;;;;2.90;2.07;;;;;;;;;;5034074;28;20471;-89
2023/09/23 00:48:44;;;;;;;4.33;3.07;;;;;;;;;;5050112;28;20409;-92
2023/09/23 00:51:10;;;;;;;4.07;3.17;;;;;;;;;;5050021;28;20409;-90
2023/09/23 00:53:39;;;;;;;4.00;2.60;;;;;;;;;;5050439;28;20765;-90
2023/09/23 00:56:08;;;;;;;2.50;1.40;;;;;;;;;;5035070;28;20405;-94
2023/09/23 00:58:38;;;;;;;3.37;3.07;;;;;;;;;;5050629;28;20504;-92
2023/09/23 01:01:08;;;;;;;2.30;1.47;;;;;;;;;;5049940;28;20504;-90
2023/09/23 01:03:39;;;;;;;3.83;2.60;;;;;;;;;;5050607;28;20914;-90
2023/09/23 01:06:11;;;;;;;3.10;2.30;;;;;;;;;;5051182;28;20469;-91
2023/09/23 01:08:38;;;;;;;3.30;2.73;;;;;;;;;;5050264;28;20415;-93
2023/09/23 01:11:04;;;;;;;4.53;2.57;;;;;;;;;;5050404;28;20457;-91
2023/09/23 01:13:30;;;;;;;4.33;2.90;;;;;;;;;;5050595;28;20424;-92
2023/09/23 01:15:57;;;;;;;3.77;2.40;;;;;;;;;;5049636;28;20421;-92
2023/09/23 01:18:23;;;;;;;4.60;1.87;;;;;;;;;;5049836;28;20485;-92
2023/09/23 01:20:51;;;;;;;3.30;2.40;;;;;;;;;;5050280;28;20447;-92
2023/09/23 01:23:17;;;;;;;3.50;1.90;;;;;;;;;;5034464;28;20404;-94
2023/09/23 01:25:43;;;;;;;3.57;1.70;;;;;;;;;;5049629;28;20542;-92
2023/09/23 01:28:11;;;;;;;5.00;2.20;;;;;;;;;;5050030;28;20421;-91
2023/09/23 01:30:37;;;;;;;5.63;2.30;;;;;;;;;;5049405;28;20471;-91
2023/09/23 01:33:07;;;;;;;3.27;2.97;;;;;;;;;;5049650;28;20422;-89
2023/09/23 01:35:33;;;;;;;2.37;2.17;;;;;;;;;;5049843;28;20431;-90
2023/09/23 01:38:01;;;;;;;3.10;2.60;;;;;;;;;;5049609;28;20777;-93
2023/09/23 01:40:29;;;;;;;6.53;2.73;;;;;;;;;;5049595;28;20451;-88
2023/09/23 01:42:55;;;;;;;3.47;2.30;;;;;;;;;;5048619;28;20508;-88
2023/09/23 01:45:22;;;;;;;2.47;2.27;;;;;;;;;;5032803;28;20560;-89
2023/09/23 01:47:49;;;;;;;3.70;2.70;;;;;;;;;;5048562;28;20421;-87
2023/09/23 01:50:17;;;;;;;3.13;2.83;;;;;;;;;;5048906;28;20427;-89
2023/09/23 01:52:43;;;;;;;3.20;2.47;;;;;;;;;;5049202;28;20420;-91
2023/09/23 01:55:15;;;;;;;5.83;2.20;;;;;;;;;;5049236;28;20417;-90
2023/09/23 01:57:41;;;;;;;3.27;2.73;;;;;;;;;;5049170;28;20452;-90
2023/09/23 02:00:08;;;;;;;3.20;2.40;;;;;;;;;;5048792;28;20413;-91
2023/09/23 02:02:34;;;;;;;3.40;2.00;;;;;;;;;;5062309;28;20413;-94
2023/09/23 02:05:00;;;;;;;3.23;2.50;;;;;;;;;;5067552;28;20527;-93
2023/09/23 02:07:29;;;;;;;3.40;2.23;;;;;;;;;;5060513;28;20440;-94
2023/09/23 02:09:55;;;;;;;3.43;2.17;;;;;;;;;;5061989;28;20452;-93
2023/09/23 02:12:21;;;;;;;5.13;3.07;;;;;;;;;;5062238;28;20429;-93
2023/09/23 02:14:47;;;;;;;3.57;2.30;;;;;;;;;;5065097;28;20423;-94
2023/09/23 02:17:13;;;;;;;3.50;2.83;;;;;;;;;;5062072;28;20421;-93
2023/09/23 02:19:53;;;;;;;3.40;3.10;;;;;;;;;;5047220;28;20496;-94
2023/09/23 02:22:20;;;;;;;3.00;1.93;;;;;;;;;;5039887;28;20417;-95
2023/09/23 02:24:51;;;;;;;3.93;2.00;;;;;;;;;;5063925;28;20532;-95
2023/09/23 02:27:27;;;;;;;3.37;2.17;;;;;;;;;;5069130;28;20441;-95
2023/09/23 02:30:16;;;;;;;3.33;2.30;;;;;;;;;;5046901;28;20439;-96
2023/09/23 02:32:46;;;;;;;2.90;2.60;;;;;;;;;;5062832;28;20429;-95
2023/09/23 02:35:15;;;;;;;2.83;2.50;;;;;;;;;;5059504;28;20417;-92
2023/09/23 02:38:18;;;;;;;2.60;2.27;;;;;;;;;;5070812;28;20403;-91
2023/09/23 02:44:20;;;;;;;2.37;1.80;;;;;;;;;;5677042;22;20471;-95
2023/09/23 02:46:55;;;;;;;3.73;2.67;;;;;;;;;;5075024;23;20559;-95
2023/09/23 02:49:21;;;;;;;2.87;2.50;;;;;;;;;;5065748;28;20836;-94
2023/09/23 02:51:48;;;;;;;3.73;2.43;;;;;;;;;;5055247;28;20458;-91
2023/09/23 02:54:17;;;;;;;2.33;1.53;;;;;;;;;;5037692;28;20417;-91
2023/09/23 02:56:46;;;;;;;3.20;1.83;;;;;;;;;;5038428;28;20492;-93
2023/09/23 02:59:13;;;;;;;3.40;2.60;;;;;;;;;;5047957;28;20451;-95
2023/09/23 03:01:42;;;;;;;3.73;1.70;;;;;;;;;;5057418;28;20439;-94
2023/09/23 03:04:16;;;;;;;3.27;1.97;;;;;;;;;;5057117;28;20408;-92
2023/09/23 03:06:43;;;;;;;3.10;2.80;;;;;;;;;;5050201;28;20445;-93
2023/09/23 03:09:10;;;;;;;3.40;2.40;;;;;;;;;;5056841;28;20408;-92
2023/09/23 03:11:47;;;;;;;3.40;2.33;;;;;;;;;;5037036;28;20455;-95
2023/09/23 03:14:18;;;;;;;3.43;2.07;;;;;;;;;;5041086;28;20397;-95
2023/09/23 03:16:48;;;;;;;6.87;3.43;;;;;;;;;;5056888;28;20449;-91
2023/09/23 03:19:15;;;;;;;3.07;1.93;;;;;;;;;;5056982;28;20396;-95
2023/09/23 03:21:42;;;;;;;5.37;2.70;;;;;;;;;;5045400;28;20430;-93
2023/09/23 03:24:10;;;;;;;4.30;2.93;;;;;;;;;;5049026;28;20411;-96
2023/09/23 03:26:36;;;;;;;3.33;2.30;;;;;;;;;;5038202;28;20478;-93
2023/09/23 03:29:06;;;;;;;3.93;2.07;;;;;;;;;;5049030;28;20413;-95
2023/09/23 03:31:32;;;;;;;2.77;2.57;;;;;;;;;;5049185;28;20425;-95
2023/09/23 03:33:59;;;;;;;2.83;1.90;;;;;;;;;;5059291;28;20756;-95
2023/09/23 03:36:25;;;;;;;4.40;2.60;;;;;;;;;;5046513;28;20416;-95
2023/09/23 03:38:51;;;;;;;2.67;2.43;;;;;;;;;;5047746;28;20455;-94
2023/09/23 03:41:17;;;;;;;3.60;2.90;;;;;;;;;;5037013;28;20428;-94
2023/09/23 03:43:43;;;;;;;8.10;3.63;;;;;;;;;;5050707;28;20411;-95
2023/09/23 03:46:14;;;;;;;5.10;3.17;;;;;;;;;;5046979;28;20486;-94
2023/09/23 03:48:40;;;;;;;4.23;2.67;;;;;;;;;;5056729;28;20465;-92
2023/09/23 03:51:09;;;;;;;3.87;3.13;;;;;;;;;;5036670;28;20424;-95
2023/09/23 03:53:37;;;;;;;5.03;3.10;;;;;;;;;;5043763;28;20408;-95
2023/09/23 03:56:03;;;;;;;4.00;3.50;;;;;;;;;;5039044;28;20443;-95
2023/09/23 03:58:30;;;;;;;4.33;3.73;;;;;;;;;;5055819;28;20853;-92
2023/09/23 04:00:56;;;;;;;5.47;4.20;;;;;;;;;;5064058;28;20409;-91
2023/09/23 04:03:22;;;;;;;5.77;4.20;;;;;;;;;;5061699;28;20410;-93
2023/09/23 04:05:54;;;;;;;6.23;3.73;;;;;;;;;;5052359;28;20238;-95
2023/09/23 04:08:19;;;;;;;5.83;3.93;;;;;;;;;;5067478;23;20841;-93
2023/09/23 04:10:45;;;;;;;3.60;3.30;;;;;;;;;;5035514;28;20496;-86
2023/09/23 04:15:48;;;;;;;4.33;3.93;;;;;;;;;;5128963;22;20207;-86
2023/09/23 04:18:16;;;;;;;6.03;3.83;;;;;;;;;;5080971;28;20427;-94
2023/09/23 04:20:43;;;;;;;5.23;4.00;;;;;;;;;;5086605;28;20447;-94
2023/09/23 04:23:09;;;;;;;5.00;3.50;;;;;;;;;;5087762;28;20493;-89
2023/09/23 04:25:36;;;;;;;5.03;4.53;;;;;;;;;;5097556;28;20469;-96
2023/09/23 04:28:02;;;;;;;7.03;4.90;;;;;;;;;;5088969;28;20412;-95
2023/09/23 04:30:31;;;;;;;10.30;8.23;;;;;;;;;;5094001;22;20414;-90
2023/09/23 04:32:57;;;;;;;10.87;7.40;;;;;;;;;;5018901;28;20514;-94
2023/09/23 04:35:23;;;;;;;9.70;8.50;;;;;;;;;;5010415;28;20462;-92
2023/09/23 04:37:49;;;;;;;9.63;8.63;;;;;;;;;;5000480;28;20415;-92
2023/09/23 04:40:15;;;;;;;9.20;7.70;;;;;;;;;;4996225;28;20419;-92
2023/09/23 04:42:41;;;;;;;9.63;8.73;;;;;;;;;;4995750;28;20501;-93
2023/09/23 04:45:08;;;;;;;9.73;8.53;;;;;;;;;;4996866;28;20208;-92
2023/09/23 04:47:35;;;;;;;10.97;9.90;;;;;;;;;;4995388;28;20495;-89
2023/09/23 04:50:01;;;;;;;11.23;9.93;;;;;;;;;;4995292;28;20926;-95
2023/09/23 04:52:27;;;;;;;12.63;10.07;;;;;;;;;;4995611;28;20407;-93
2023/09/23 04:54:54;;;;;;;13.43;10.50;;;;;;;;;;4995204;28;20411;-92
2023/09/23 04:57:20;;;;;;;11.63;9.20;;;;;;;;;;4998224;28;20418;-93
2023/09/23 04:59:46;;;;;;;10.67;9.57;;;;;;;;;;4994656;28;20411;-92
2023/09/23 05:02:16;;;;;;;10.60;8.10;;;;;;;;;;4994605;28;20418;-91
2023/09/23 05:04:45;;;;;;;9.57;8.67;;;;;;;;;;4977615;28;20462;-92
2023/09/23 05:07:12;;;;;;;10.30;8.67;;;;;;;;;;4995084;28;20461;-93
2023/09/23 05:09:38;;;;;;;9.10;7.30;;;;;;;;;;4995265;28;20520;-93
2023/09/23 05:12:05;;;;;;;12.53;10.17;;;;;;;;;;4978536;28;20432;-90
2023/09/23 05:14:33;;;;;;;11.20;10.00;;;;;;;;;;4977874;28;20415;-93
2023/09/23 05:16:59;;;;;;;14.27;12.47;;;;;;;;;;4977458;28;20427;-90
2023/09/23 05:19:27;;;;;;;14.00;12.53;;;;;;;;;;4977043;28;20419;-89
2023/09/23 05:21:53;;;;;;;14.27;12.77;;;;;;;;;;4977237;28;20423;-90
2023/09/23 05:24:20;;;;;;;14.03;12.53;;;;;;;;;;4977059;28;20407;-90
2023/09/23 05:26:49;;;;;;;15.23;13.83;;;;;;;;;;4977248;28;20970;-91
2023/09/23 05:29:15;;;;;;;14.73;12.90;;;;;;;;;;4994512;28;20476;-90
2023/09/23 05:31:41;;;;;;;15.90;14.30;;;;;;;;;;4977037;28;20482;-89
2023/09/23 05:34:07;;;;;;;18.30;14.57;;;;;;;;;;4977517;28;20465;-94
2023/09/23 05:36:33;;;;;;;15.77;14.17;;;;;;;;;;4980186;28;20190;-94
2023/09/23 05:38:59;;;;;;;17.17;15.37;;;;;;;;;;4978927;28;20454;-92
2023/09/23 05:41:26;;;;;;;15.93;13.87;;;;;;;;;;4977399;28;20415;-90
2023/09/23 05:43:52;;;;;;;18.30;15.97;;;;;;;;;;4977223;28;20399;-92
2023/09/23 05:46:21;;;;;;;17.13;15.20;;;;;;;;;;4979986;28;20532;-89
2023/09/23 05:48:50;;;;;;;16.83;14.57;;;;;;;;;;4978141;28;20423;-93
2023/09/23 05:51:16;;;;;;;20.30;16.53;;;;;;;;;;4978177;28;20796;-92
2023/09/23 05:53:49;;;;;;;17.57;15.70;;;;;;;;;;4981130;28;20490;-93
2023/09/23 05:56:15;;;;;;;17.67;15.87;;;;;;;;;;4979715;28;20437;-92
2023/09/23 05:58:41;;;;;;;17.33;15.30;;;;;;;;;;4977298;28;20514;-94
2023/09/23 06:01:07;;;;;;;18.97;17.00;;;;;;;;;;4977620;28;20467;-94
2023/09/23 06:03:35;;;;;;;20.13;16.33;;;;;;;;;;4977408;28;20414;-93
2023/09/23 06:06:01;;;;;;;18.53;16.70;;;;;;;;;;4980528;28;20466;-95
2023/09/23 06:08:26;;;;;;;20.50;18.40;;;;;;;;;;4977346;28;20456;-93
2023/09/23 06:10:52;;;;;;;18.07;16.20;;;;;;;;;;4977710;28;20453;-92
2023/09/23 06:13:19;;;;;;;19.43;17.30;;;;;;;;;;4984576;28;20483;-95
2023/09/23 06:15:45;;;;;;;19.40;17.30;;;;;;;;;;4981853;28;20422;-94
2023/09/23 06:18:15;;;;;;;20.23;18.13;;;;;;;;;;4981952;28;21033;-95
2023/09/23 06:20:41;;;;;;;19.23;17.33;;;;;;;;;;4986094;28;20947;-93
2023/09/23 06:23:07;;;;;;;18.80;16.90;;;;;;;;;;5006707;28;20411;-94
2023/09/23 06:25:33;;;;;;;21.10;18.53;;;;;;;;;;5000439;28;20470;-92
2023/09/23 06:27:59;;;;;;;20.77;18.50;;;;;;;;;;4999564;28;20411;-91
2023/09/23 06:30:25;;;;;;;21.13;18.10;;;;;;;;;;4994451;28;20473;-93
2023/09/23 06:32:53;;;;;;;19.90;17.73;;;;;;;;;;4991421;28;20514;-93
2023/09/23 06:35:19;;;;;;;20.10;18.10;;;;;;;;;;4991123;28;20453;-92
2023/09/23 06:37:45;;;;;;;19.17;17.17;;;;;;;;;;4988831;28;20787;-92
2023/09/23 06:40:11;;;;;;;19.70;17.73;;;;;;;;;;4995076;28;20423;-93
2023/09/23 06:42:37;;;;;;;20.13;17.57;;;;;;;;;;4992482;28;20418;-91
2023/09/23 06:45:06;;;;;;;21.10;17.97;;;;;;;;;;4990385;28;20496;-94
2023/09/23 06:47:32;;;;;;;23.70;19.57;;;;;;;;;;5028527;22;20510;-95
2023/09/23 06:49:58;;;;;;;19.33;16.40;;;;;;;;;;5077147;28;20419;-92
2023/09/23 06:52:24;;;;;;;19.73;17.43;;;;;;;;;;5071680;28;20409;-95
2023/09/23 06:54:50;;;;;;;19.87;17.17;;;;;;;;;;5065488;28;20430;-93
2023/09/23 06:57:16;;;;;;;19.30;17.30;;;;;;;;;;5062917;28;20420;-93
2023/09/23 06:59:42;;;;;;;19.47;17.60;;;;;;;;;;5090590;28;20423;-93
2023/09/23 07:02:34;;;;;;;16.97;15.17;;;;;;;;;;5064009;28;20425;-93
2023/09/23 07:05:02;;;;;;;17.03;15.27;;;;;;;;;;5065243;28;20554;-91
2023/09/23 07:07:28;;;;;;;18.50;14.97;;;;;;;;;;5062093;28;20776;-92
2023/09/23 07:09:56;;;;;;;15.00;13.48;;;;;;;;;;5063235;28;20505;-91
2023/09/23 07:12:22;;;;;;;13.57;11.37;;;;;;;;;;5067530;28;20205;-94
2023/09/23 07:14:59;;;;;;;13.23;10.20;;;;;;;;;;5063565;28;20477;-94
2023/09/23 07:17:26;;;;;;;12.37;10.80;;;;;;;;;;5063082;28;20419;-94
2023/09/23 07:19:52;;;;;;;10.70;9.70;;;;;;;;;;5060172;28;20431;-93
2023/09/23 07:22:26;;;;;;;11.90;10.80;;;;;;;;;;5058881;28;20443;-92
2023/09/23 07:24:55;;;;;;;11.10;10.00;;;;;;;;;;5058904;28;20546;-96
2023/09/23 07:27:21;;;;;;;9.70;8.80;;;;;;;;;;5061157;28;20451;-93
2023/09/23 07:29:52;;;;;;;9.67;8.67;;;;;;;;;;5061146;28;20412;-92
2023/09/23 07:32:18;;;;;;;10.17;8.53;;;;;;;;;;5060061;28;20420;-89
2023/09/23 07:34:46;;;;;;;8.57;7.77;;;;;;;;;;5046017;28;20479;-93
2023/09/23 07:37:13;;;;;;;6.83;6.13;;;;;;;;;;5042839;28;20419;-94
2023/09/23 07:39:41;;;;;;;6.33;5.60;;;;;;;;;;5045051;28;20419;-95
2023/09/23 07:42:07;;;;;;;6.60;4.40;;;;;;;;;;5038342;28;20412;-92
2023/09/23 07:44:36;;;;;;;4.30;3.77;;;;;;;;;;5043784;28;20972;-92
2023/09/23 07:47:02;;;;;;;4.27;3.87;;;;;;;;;;5038644;28;20439;-92
2023/09/23 07:49:28;;;;;;;4.00;3.43;;;;;;;;;;5039151;28;20475;-92
2023/09/23 07:51:56;;;;;;;4.70;3.33;;;;;;;;;;5042450;28;20453;-90
2023/09/23 07:54:22;;;;;;;3.90;3.00;;;;;;;;;;5043197;28;20976;-94
2023/09/23 07:56:48;;;;;;;3.30;2.90;;;;;;;;;;5044395;28;20414;-96
2023/09/23 07:59:31;;;;;;;5.50;2.70;;;;;;;;;;5048888;28;20898;-94
2023/09/23 08:02:21;;;;;;;5.43;3.10;;;;;;;;;;5046787;28;20426;-95
2023/09/23 08:04:47;;;;;;;4.27;2.20;;;;;;;;;;5145820;23;20491;-94
2023/09/23 08:07:19;;;;;;;2.90;2.60;;;;;;;;;;5109726;22;20489;-95
2023/09/23 08:12:40;;;;;;;4.27;2.40;;;;;;;;;;5188214;23;20503;-92
2023/09/23 08:15:14;;;;;;;3.93;2.00;;;;;;;;;;5414039;22;20498;-88
2023/09/23 08:17:40;;;;;;;3.30;2.93;;;;;;;;;;5062690;28;20464;-94
2023/09/23 08:20:21;;;;;;;3.47;2.63;;;;;;;;;;5060462;28;20418;-94
2023/09/23 08:22:53;;;;;;;2.73;2.27;;;;;;;;;;5064469;28;20448;-93
2023/09/23 08:26:04;;;;;;;3.00;1.30;;;;;;;;;;5062377;28;20461;-92
2023/09/23 08:28:39;;;;;;;2.77;2.33;;;;;;;;;;5033768;28;20425;-92
2023/09/23 08:31:05;;;;;;;4.03;1.40;;;;;;;;;;5061592;28;20471;-93
2023/09/23 08:33:32;;;;;;;3.47;1.23;;;;;;;;;;5062638;28;20419;-93
2023/09/23 08:38:31;;;;;;;2.30;1.10;;;;;;;;;;5075168;22;21012;-89
2023/09/23 08:40:58;;;;;;;3.77;1.47;;;;;;;;;;5029227;28;20840;-89
2023/09/23 08:43:38;;;;;;;2.13;0.97;;;;;;;;;;5024224;28;20426;-91
2023/09/23 08:46:09;;;;;;;2.43;0.97;;;;;;;;;;5017493;28;20477;-90
2023/09/23 08:48:38;;;;;;;1.90;1.33;;;;;;;;;;5019032;28;20417;-91
2023/09/23 08:51:10;;;;;;;1.97;1.33;;;;;;;;;;5021315;28;20420;-94
2023/09/23 08:53:48;;;;;;;2.90;1.63;;;;;;;;;;5022802;28;20424;-91
2023/09/23 08:57:01;;;;;;;2.73;1.50;;;;;;;;;;5025565;28;20934;-93
2023/09/23 09:00:08;;;;;;;4.20;2.90;;;;;;;;;;5064323;22;20476;-94
2023/09/23 09:03:16;;;;;;;1.90;1.53;;;;;;;;;;5059236;28;20532;-91
2023/09/23 09:06:31;;;;;;;;;;;;;;;;;;;;;
2023/09/23 09:11:40;;;;;;;1.93;1.80;;;;;;;;;;5194279;22;21023;-90
2023/09/23 09:14:13;;;;;;;3.17;1.70;;;;;;;;;;5086005;28;20830;-93
2023/09/23 09:16:40;;;;;;;1.93;1.27;;;;;;;;;;5087238;28;20435;-92
2023/09/23 09:19:06;;;;;;;3.40;2.33;;;;;;;;;;5067409;28;20447;-92
2023/09/23 09:21:54;;;;;;;3.97;1.97;;;;;;;;;;5105413;28;20410;-89
2023/09/23 09:24:40;;;;;;;3.00;2.20;;;;;;;;;;5084638;28;20460;-88
2023/09/23 09:27:24;;;;;;;2.13;1.70;;;;;;;;;;5093938;28;20449;-88
2023/09/23 09:29:51;;;;;;;2.33;2.13;;;;;;;;;;5080144;28;20407;-90
2023/09/23 09:32:26;;;;;;;1.70;1.10;;;;;;;;;;5086811;28;21009;-88
2023/09/23 09:34:59;;;;;;;4.40;2.13;;;;;;;;;;5114607;28;20406;-92
2023/09/23 09:37:34;;;;;;;4.53;1.57;;;;;;;;;;5109876;28;20410;-87
2023/09/23 09:40:01;;;;;;;2.17;1.30;;;;;;;;;;5076377;28;20423;-88
2023/09/23 09:42:28;;;;;;;4.43;1.80;;;;;;;;;;5094844;28;20435;-91
2023/09/23 09:44:55;;;;;;;1.93;1.30;;;;;;;;;;5084713;28;20859;-87
2023/09/23 09:47:22;;;;;;;2.43;1.30;;;;;;;;;;5087588;28;20457;-88
2023/09/23 09:49:50;;;;;;;2.30;1.83;;;;;;;;;;5115932;28;20412;-95
2023/09/23 09:52:18;;;;;;;2.00;1.57;;;;;;;;;;5087917;28;20425;-89
2023/09/23 09:54:44;;;;;;;3.50;1.37;;;;;;;;;;5111693;28;20393;-87
2023/09/23 09:57:12;;;;;;;1.87;1.27;;;;;;;;;;5090382;28;20761;-89
2023/09/23 09:59:40;;;;;;;1.53;1.03;;;;;;;;;;5087179;28;20470;-89
2023/09/23 10:02:07;;;;;;;1.63;0.87;;;;;;;;;;5105031;28;20804;-92
2023/09/23 10:04:33;;;;;;;2.17;1.33;;;;;;;;;;5104261;28;20456;-93
2023/09/23 10:07:00;;;;;;;2.77;1.50;;;;;;;;;;5094550;28;20415;-91
2023/09/23 10:09:29;;;;;;;1.97;1.03;;;;;;;;;;5086407;28;20416;-93
2023/09/23 10:11:58;;;;;;;1.70;1.30;;;;;;;;;;5090211;28;20473;-93
2023/09/23 10:14:24;;;;;;;2.20;1.20;;;;;;;;;;5085883;28;20428;-91
2023/09/23 10:16:59;;;;;;;1.77;1.47;;;;;;;;;;5101807;28;20414;-89
2023/09/23 10:19:32;;;;;;;2.70;0.87;;;;;;;;;;5087637;28;20844;-90
2023/09/23 10:22:12;;;;;;;1.63;1.20;;;;;;;;;;5110527;28;20507;-91
2023/09/23 10:24:38;;;;;;;1.97;1.40;;;;;;;;;;5077607;28;20966;-93
2023/09/23 10:27:06;;;;;;;3.30;1.17;;;;;;;;;;5106614;28;20432;-93
2023/09/23 10:29:42;;;;;;;2.67;1.30;;;;;;;;;;5081427;28;20410;-91
2023/09/23 10:32:14;;;;;;;4.13;1.80;;;;;;;;;;5082592;28;20461;-94
2023/09/23 10:34:49;;;;;;;2.23;1.03;;;;;;;;;;5081479;28;20406;-91
2023/09/23 10:37:24;;;;;;;1.80;0.90;;;;;;;;;;5080457;28;20442;-90
2023/09/23 10:39:51;;;;;;;3.00;1.17;;;;;;;;;;5109047;28;20497;-89
2023/09/23 10:42:17;;;;;;;2.50;1.40;;;;;;;;;;5105635;28;20407;-90
2023/09/23 10:44:42;;;;;;;1.60;0.80;;;;;;;;;;5111192;28;20477;-89
2023/09/23 10:47:09;;;;;;;2.83;1.47;;;;;;;;;;5099611;28;20519;-86
2023/09/23 10:49:35;;;;;;;1.63;1.07;;;;;;;;;;5113062;28;20422;-91
2023/09/23 10:52:01;;;;;;;1.50;1.20;;;;;;;;;;5096324;28;20425;-86
2023/09/23 10:54:28;;;;;;;4.40;1.50;;;;;;;;;;5079220;28;20179;-86
2023/09/23 10:56:54;;;;;;;2.13;0.97;;;;;;;;;;5098711;28;20765;-91
2023/09/23 10:59:20;;;;;;;3.40;0.73;;;;;;;;;;5098153;28;20412;-88
2023/09/23 11:01:46;;;;;;;1.07;0.50;;;;;;;;;;5095976;28;20428;-91
2023/09/23 11:04:12;;;;;;;1.73;0.50;;;;;;;;;;5095801;28;20428;-89
2023/09/23 11:06:38;;;;;;;1.57;0.50;;;;;;;;;;5099861;28;20873;-85
2023/09/23 11:09:07;;;;;;;2.10;0.73;;;;;;;;;;5100840;28;20410;-93
2023/09/23 11:11:34;;;;;;;2.00;0.90;;;;;;;;;;5098369;28;20468;-91
2023/09/23 11:14:00;;;;;;;2.10;1.20;;;;;;;;;;5100945;28;20971;-86
2023/09/23 11:16:26;;;;;;;1.77;1.07;;;;;;;;;;5101142;28;20517;-93
2023/09/23 11:18:55;;;;;;;2.00;1.00;;;;;;;;;;5100034;28;20168;-81
2023/09/23 11:21:21;;;;;;;1.37;0.60;;;;;;;;;;5099376;28;20172;-89
2023/09/23 11:23:55;;;;;;;1.80;0.93;;;;;;;;;;5102706;28;20413;-89
2023/09/23 11:26:22;;;;;;;2.67;0.83;;;;;;;;;;5102864;28;20212;-88
2023/09/23 11:28:48;;;;;;;5.53;1.20;;;;;;;;;;5081612;28;20580;-88
2023/09/23 11:31:14;;;;;;;1.30;0.47;;;;;;;;;;5099482;28;20508;-80
2023/09/23 11:33:40;;;;;;;2.53;1.17;;;;;;;;;;5095650;28;20176;-88
2023/09/23 11:36:06;;;;;;;2.47;1.10;;;;;;;;;;5096095;28;20655;-86
2023/09/23 11:38:32;;;;;;;1.47;1.00;;;;;;;;;;5103591;28;20169;-92
2023/09/23 11:40:59;;;;;;;2.23;1.63;;;;;;;;;;5103848;28;20184;-96
2023/09/23 11:43:25;;;;;;;1.20;0.90;;;;;;;;;;5106034;28;20168;-92
2023/09/23 11:45:51;;;;;;;2.80;1.10;;;;;;;;;;5103500;28;20462;-93
2023/09/23 11:48:17;;;;;;;2.50;1.10;;;;;;;;;;5099292;28;20407;-91
2023/09/23 11:50:43;;;;;;;2.37;1.00;;;;;;;;;;5104947;28;20171;-94
2023/09/23 11:53:11;;;;;;;1.93;0.83;;;;;;;;;;5082637;28;20414;-90
2023/09/23 11:55:37;;;;;;;3.10;1.57;;;;;;;;;;5081122;28;20417;-91
2023/09/23 11:58:04;;;;;;;2.70;1.10;;;;;;;;;;5098177;28;20450;-94
2023/09/23 12:00:30;;;;;;;1.73;1.00;;;;;;;;;;5103561;28;20402;-91
2023/09/23 12:02:56;;;;;;;2.23;0.90;;;;;;;;;;5099742;28;20475;-89
2023/09/23 12:05:29;;;;;;;2.83;1.47;;;;;;;;;;5100300;28;20466;-92
2023/09/23 12:07:58;;;;;;;2.00;0.80;;;;;;;;;;5103722;28;20412;-91
2023/09/23 12:10:25;;;;;;;2.43;1.13;;;;;;;;;;5103941;28;20414;-89
2023/09/23 12:12:50;;;;;;;2.23;1.07;;;;;;;;;;5099357;28;20938;-93
2023/09/23 12:15:17;;;;;;;1.73;1.20;;;;;;;;;;5102735;28;20418;-92
2023/09/23 12:17:43;;;;;;;1.97;1.77;;;;;;;;;;5101273;28;20172;-85
2023/09/23 12:20:11;;;;;;;3.40;2.07;;;;;;;;;;5098979;28;20410;-91
2023/09/23 12:22:38;;;;;;;3.33;2.63;;;;;;;;;;5100528;28;20395;-90
2023/09/23 12:25:05;;;;;;;3.30;2.60;;;;;;;;;;5078478;28;20500;-92
2023/09/23 12:27:31;;;;;;;4.20;2.73;;;;;;;;;;5100670;28;20773;-94
2023/09/23 12:29:57;;;;;;;3.40;3.10;;;;;;;;;;5083050;28;20413;-89
2023/09/23 12:32:22;;;;;;;3.83;2.20;;;;;;;;;;5099747;28;20176;-82
2023/09/23 12:34:49;;;;;;;3.83;3.40;;;;;;;;;;5099228;28;20168;-90
2023/09/23 12:37:15;;;;;;;4.00;2.17;;;;;;;;;;5102331;28;20168;-88
2023/09/23 12:39:41;;;;;;;5.40;2.30;;;;;;;;;;5082302;28;20427;-88
2023/09/23 12:42:07;;;;;;;3.37;2.73;;;;;;;;;;5084042;28;20483;-88
2023/09/23 12:44:33;;;;;;;3.00;2.50;;;;;;;;;;5101066;28;20251;-93
2023/09/23 12:46:58;;;;;;;4.53;3.10;;;;;;;;;;5101673;28;20268;-87
2023/09/23 12:49:24;;;;;;;4.10;2.57;;;;;;;;;;5103922;28;20181;-83
2023/09/23 12:51:50;;;;;;;2.93;2.63;;;;;;;;;;5105560;28;20656;-85
2023/09/23 12:54:16;;;;;;;3.43;2.50;;;;;;;;;;5104786;28;20532;-94
2023/09/23 12:56:42;;;;;;;4.57;2.60;;;;;;;;;;5076399;28;20172;-93
2023/09/23 12:59:18;;;;;;;3.87;2.83;;;;;;;;;;5057446;22;20516;-90
2023/09/23 13:01:44;;;;;;;4.93;3.40;;;;;;;;;;5041024;28;20630;-93
2023/09/23 13:04:09;;;;;;;6.20;2.57;;;;;;;;;;5037856;28;20420;-92
2023/09/23 13:06:41;;;;;;;3.97;2.87;;;;;;;;;;5038740;28;20217;-81
2023/09/23 13:09:08;;;;;;;4.03;2.37;;;;;;;;;;5030441;28;20189;-92
2023/09/23 13:11:34;;;;;;;3.50;2.60;;;;;;;;;;5046662;28;20423;-94
2023/09/23 13:14:00;;;;;;;4.00;2.63;;;;;;;;;;5049010;28;20397;-91
2023/09/23 13:16:27;;;;;;;3.27;2.13;;;;;;;;;;5041503;28;21179;-95
2023/09/23 13:18:53;;;;;;;2.63;1.83;;;;;;;;;;5045340;28;20173;-93
2023/09/23 13:21:19;;;;;;;3.93;2.80;;;;;;;;;;5041037;28;20408;-86
2023/09/23 13:23:45;;;;;;;3.90;1.80;;;;;;;;;;5043757;28;20424;-93
2023/09/23 13:26:11;;;;;;;4.57;1.43;;;;;;;;;;5023665;28;20501;-93
2023/09/23 13:28:39;;;;;;;3.43;1.97;;;;;;;;;;5044645;28;20407;-90
2023/09/23 13:31:05;;;;;;;4.03;1.53;;;;;;;;;;5025366;28;21025;-94
2023/09/23 13:33:31;;;;;;;3.83;2.03;;;;;;;;;;5048496;28;20457;-92
2023/09/23 13:35:57;;;;;;;5.27;1.97;;;;;;;;;;5027064;28;20183;-91
2023/09/23 13:38:23;;;;;;;3.87;1.83;;;;;;;;;;5039770;28;20416;-93
2023/09/23 13:40:49;;;;;;;2.80;1.43;;;;;;;;;;5046744;28;20485;-92
2023/09/23 13:43:15;;;;;;;2.70;1.83;;;;;;;;;;5044760;28;20180;-93
2023/09/23 13:45:41;;;;;;;3.03;1.50;;;;;;;;;;5045399;28;20464;-92
2023/09/23 13:48:08;;;;;;;2.60;1.20;;;;;;;;;;5048664;28;20497;-94
2023/09/23 13:50:37;;;;;;;2.07;1.20;;;;;;;;;;5045710;28;20413;-92
2023/09/23 13:53:03;;;;;;;3.57;1.50;;;;;;;;;;5044777;28;20410;-92
2023/09/23 13:55:29;;;;;;;3.73;0.90;;;;;;;;;;5043390;28;20417;-89
2023/09/23 13:57:58;;;;;;;2.37;1.10;;;;;;;;;;5044424;28;20458;-89
2023/09/23 14:00:31;;;;;;;3.00;1.30;;;;;;;;;;5022554;28;20426;-93
2023/09/23 14:02:57;;;;;;;2.70;1.20;;;;;;;;;;5042493;28;20496;-90
2023/09/23 14:05:23;;;;;;;2.27;1.47;;;;;;;;;;5037744;28;20472;-89
2023/09/23 14:07:50;;;;;;;3.10;1.60;;;;;;;;;;5022121;28;20993;-87
2023/09/23 14:10:16;;;;;;;3.97;1.50;;;;;;;;;;5038825;28;20408;-92
2023/09/23 14:12:42;;;;;;;2.50;1.60;;;;;;;;;;5039896;28;20473;-83
2023/09/23 14:15:08;;;;;;;2.97;1.60;;;;;;;;;;5054308;28;20234;-90
2023/09/23 14:17:34;;;;;;;3.33;1.03;;;;;;;;;;5031228;28;20443;-92
2023/09/23 14:20:04;;;;;;;3.27;1.40;;;;;;;;;;5041291;28;20425;-92
2023/09/23 14:22:31;;;;;;;2.00;0.70;;;;;;;;;;5047442;28;20177;-91
2023/09/23 14:24:56;;;;;;;2.93;1.60;;;;;;;;;;5046681;28;20813;-93
2023/09/23 14:27:22;;;;;;;1.90;0.97;;;;;;;;;;5041510;28;20451;-94
2023/09/23 14:29:49;;;;;;;3.50;1.63;;;;;;;;;;5042545;28;20417;-81
2023/09/23 14:32:15;;;;;;;2.73;1.37;;;;;;;;;;5050061;28;20671;-93
2023/09/23 14:34:40;;;;;;;3.30;1.30;;;;;;;;;;5049046;28;20424;-90
2023/09/23 14:37:06;;;;;;;2.80;1.60;;;;;;;;;;5053929;28;20417;-85
2023/09/23 14:39:33;;;;;;;2.77;1.30;;;;;;;;;;5050234;28;20158;-80
2023/09/23 14:41:59;;;;;;;2.20;1.23;;;;;;;;;;5053112;28;20816;-88
2023/09/23 14:44:25;;;;;;;1.60;1.20;;;;;;;;;;5053792;28;20443;-90
2023/09/23 14:46:51;;;;;;;3.80;1.60;;;;;;;;;;5053209;28;20171;-93
2023/09/23 14:49:17;;;;;;;5.07;1.63;;;;;;;;;;5029920;28;20424;-93
2023/09/23 14:51:43;;;;;;;3.43;1.93;;;;;;;;;;5047522;28;20181;-91
2023/09/23 14:54:08;;;;;;;2.20;1.30;;;;;;;;;;5047022;28;20237;-93
2023/09/23 14:56:34;;;;;;;3.67;1.80;;;;;;;;;;5046365;28;20175;-83
2023/09/23 14:59:03;;;;;;;3.77;1.23;;;;;;;;;;5047537;28;20585;-92
2023/09/23 15:01:32;;;;;;;5.30;1.17;;;;;;;;;;5045892;28;20438;-88